sensor_id;sensor_type;location;lat;lon;timestamp;P1;durP1;ratioP1;P2;durP2;ratioP2
46815;SDS011;32787;53.316;8.670;2023-05-14T00:00:41;12.80;;;6.53;;
46815;SDS011;32787;53.316;8.670;2023-05-14T00:03:07;7.97;;;5.80;;
46815;SDS011;32787;53.316;8.670;2023-05-14T00:05:33;10.52;;;6.20;;
46815;SDS011;32787;53.316;8.670;2023-05-14T00:07:59;9.02;;;5.85;;
46815;SDS011;32787;53.316;8.670;2023-05-14T00:10:25;11.20;;;6.53;;
46815;SDS011;32787;53.316;8.670;2023-05-14T00:12:51;10.00;;;6.60;;
46815;SDS011;32787;53.316;8.670;2023-05-14T00:15:17;10.95;;;6.18;;
46815;SDS011;32787;53.316;8.670;2023-05-14T00:17:43;9.25;;;6.38;;
46815;SDS011;32787;53.316;8.670;2023-05-14T00:20:08;11.38;;;6.60;;
46815;SDS011;32787;53.316;8.670;2023-05-14T00:22:36;10.75;;;6.55;;
46815;SDS011;32787;53.316;8.670;2023-05-14T00:25:02;9.80;;;6.65;;
46815;SDS011;32787;53.316;8.670;2023-05-14T00:27:28;10.38;;;6.30;;
46815;SDS011;32787;53.316;8.670;2023-05-14T00:29:54;9.93;;;6.68;;
46815;SDS011;32787;53.316;8.670;2023-05-14T00:32:20;8.80;;;6.53;;
46815;SDS011;32787;53.316;8.670;2023-05-14T00:34:45;10.02;;;7.35;;
46815;SDS011;32787;53.316;8.670;2023-05-14T00:37:11;13.27;;;6.30;;
46815;SDS011;32787;53.316;8.670;2023-05-14T00:39:36;11.93;;;6.68;;
46815;SDS011;32787;53.316;8.670;2023-05-14T00:42:02;13.80;;;7.28;;
46815;SDS011;32787;53.316;8.670;2023-05-14T00:44:28;10.70;;;6.93;;
46815;SDS011;32787;53.316;8.670;2023-05-14T00:46:53;15.23;;;7.20;;
46815;SDS011;32787;53.316;8.670;2023-05-14T00:49:19;12.68;;;7.00;;
46815;SDS011;32787;53.316;8.670;2023-05-14T00:51:46;14.48;;;7.70;;
46815;SDS011;32787;53.316;8.670;2023-05-14T00:54:13;10.38;;;7.00;;
46815;SDS011;32787;53.316;8.670;2023-05-14T00:56:39;12.35;;;7.03;;
46815;SDS011;32787;53.316;8.670;2023-05-14T00:59:05;9.65;;;7.38;;
46815;SDS011;32787;53.316;8.670;2023-05-14T01:01:31;9.68;;;7.45;;
46815;SDS011;32787;53.316;8.670;2023-05-14T01:03:56;11.05;;;6.97;;
46815;SDS011;32787;53.316;8.670;2023-05-14T01:11:51;11.75;;;8.25;;
46815;SDS011;32787;53.316;8.670;2023-05-14T01:17:04;11.65;;;7.55;;
46815;SDS011;32787;53.316;8.670;2023-05-14T01:22:05;12.25;;;7.90;;
46815;SDS011;32787;53.316;8.670;2023-05-14T01:24:30;16.90;;;8.45;;
46815;SDS011;32787;53.316;8.670;2023-05-14T01:26:58;13.93;;;7.88;;
46815;SDS011;32787;53.316;8.670;2023-05-14T01:29:41;11.60;;;7.60;;
46815;SDS011;32787;53.316;8.670;2023-05-14T01:32:12;12.38;;;7.63;;
46815;SDS011;32787;53.316;8.670;2023-05-14T01:34:41;10.98;;;7.85;;
46815;SDS011;32787;53.316;8.670;2023-05-14T01:37:08;10.68;;;7.30;;
46815;SDS011;32787;53.316;8.670;2023-05-14T01:39:36;12.98;;;7.75;;
46815;SDS011;32787;53.316;8.670;2023-05-14T01:42:03;10.95;;;7.88;;
46815;SDS011;32787;53.316;8.670;2023-05-14T01:44:30;12.85;;;8.02;;
46815;SDS011;32787;53.316;8.670;2023-05-14T01:46:57;10.95;;;7.57;;
46815;SDS011;32787;53.316;8.670;2023-05-14T01:49:22;12.40;;;7.53;;
46815;SDS011;32787;53.316;8.670;2023-05-14T01:51:48;11.35;;;7.82;;
46815;SDS011;32787;53.316;8.670;2023-05-14T01:54:14;11.13;;;7.63;;
46815;SDS011;32787;53.316;8.670;2023-05-14T01:56:39;11.68;;;8.18;;
46815;SDS011;32787;53.316;8.670;2023-05-14T01:59:05;12.40;;;7.75;;
46815;SDS011;32787;53.316;8.670;2023-05-14T02:01:30;11.60;;;7.40;;
46815;SDS011;32787;53.316;8.670;2023-05-14T02:03:57;11.57;;;7.68;;
46815;SDS011;32787;53.316;8.670;2023-05-14T02:06:23;11.80;;;7.57;;
46815;SDS011;32787;53.316;8.670;2023-05-14T02:08:49;10.32;;;7.45;;
46815;SDS011;32787;53.316;8.670;2023-05-14T02:11:14;11.95;;;7.53;;
46815;SDS011;32787;53.316;8.670;2023-05-14T02:13:40;12.27;;;7.30;;
46815;SDS011;32787;53.316;8.670;2023-05-14T02:16:06;12.45;;;8.55;;
46815;SDS011;32787;53.316;8.670;2023-05-14T02:18:31;12.15;;;7.88;;
46815;SDS011;32787;53.316;8.670;2023-05-14T02:20:57;12.15;;;8.30;;
46815;SDS011;32787;53.316;8.670;2023-05-14T02:23:23;12.30;;;8.05;;
46815;SDS011;32787;53.316;8.670;2023-05-14T02:25:48;12.18;;;8.45;;
46815;SDS011;32787;53.316;8.670;2023-05-14T02:28:14;11.57;;;8.00;;
46815;SDS011;32787;53.316;8.670;2023-05-14T02:30:40;13.63;;;7.97;;
46815;SDS011;32787;53.316;8.670;2023-05-14T02:33:05;13.10;;;8.23;;
46815;SDS011;32787;53.316;8.670;2023-05-14T02:35:31;14.75;;;8.90;;
46815;SDS011;32787;53.316;8.670;2023-05-14T02:37:56;13.48;;;8.23;;
46815;SDS011;32787;53.316;8.670;2023-05-14T02:40:23;11.48;;;8.55;;
46815;SDS011;32787;53.316;8.670;2023-05-14T02:42:49;12.55;;;8.80;;
46815;SDS011;32787;53.316;8.670;2023-05-14T02:45:15;12.75;;;8.95;;
46815;SDS011;32787;53.316;8.670;2023-05-14T02:47:40;15.13;;;8.82;;
46815;SDS011;32787;53.316;8.670;2023-05-14T02:50:07;12.82;;;9.45;;
46815;SDS011;32787;53.316;8.670;2023-05-14T02:52:33;14.93;;;9.35;;
46815;SDS011;32787;53.316;8.670;2023-05-14T02:54:59;11.25;;;8.30;;
46815;SDS011;32787;53.316;8.670;2023-05-14T02:57:24;14.20;;;8.38;;
46815;SDS011;32787;53.316;8.670;2023-05-14T02:59:50;12.35;;;8.50;;
46815;SDS011;32787;53.316;8.670;2023-05-14T03:02:16;14.32;;;8.45;;
46815;SDS011;32787;53.316;8.670;2023-05-14T03:04:41;11.65;;;8.82;;
46815;SDS011;32787;53.316;8.670;2023-05-14T03:07:07;15.40;;;8.73;;
46815;SDS011;32787;53.316;8.670;2023-05-14T03:09:32;19.00;;;9.25;;
46815;SDS011;32787;53.316;8.670;2023-05-14T03:11:58;11.02;;;8.18;;
46815;SDS011;32787;53.316;8.670;2023-05-14T03:14:24;12.65;;;8.73;;
46815;SDS011;32787;53.316;8.670;2023-05-14T03:16:50;11.55;;;9.23;;
46815;SDS011;32787;53.316;8.670;2023-05-14T03:19:15;12.38;;;8.88;;
46815;SDS011;32787;53.316;8.670;2023-05-14T03:21:41;12.55;;;9.57;;
46815;SDS011;32787;53.316;8.670;2023-05-14T03:24:06;16.48;;;9.00;;
46815;SDS011;32787;53.316;8.670;2023-05-14T03:26:32;13.50;;;8.60;;
46815;SDS011;32787;53.316;8.670;2023-05-14T03:28:58;10.95;;;8.68;;
46815;SDS011;32787;53.316;8.670;2023-05-14T03:31:23;11.48;;;7.95;;
46815;SDS011;32787;53.316;8.670;2023-05-14T03:33:49;12.43;;;9.18;;
46815;SDS011;32787;53.316;8.670;2023-05-14T03:36:15;11.95;;;8.90;;
46815;SDS011;32787;53.316;8.670;2023-05-14T03:38:41;13.55;;;9.35;;
46815;SDS011;32787;53.316;8.670;2023-05-14T03:41:07;14.75;;;9.68;;
46815;SDS011;32787;53.316;8.670;2023-05-14T03:43:33;11.73;;;9.50;;
46815;SDS011;32787;53.316;8.670;2023-05-14T03:45:59;14.23;;;9.38;;
46815;SDS011;32787;53.316;8.670;2023-05-14T03:48:24;13.27;;;10.13;;
46815;SDS011;32787;53.316;8.670;2023-05-14T03:50:50;13.15;;;9.43;;
46815;SDS011;32787;53.316;8.670;2023-05-14T03:53:16;13.02;;;10.05;;
46815;SDS011;32787;53.316;8.670;2023-05-14T03:55:41;12.98;;;9.55;;
46815;SDS011;32787;53.316;8.670;2023-05-14T03:58:07;11.80;;;8.73;;
46815;SDS011;32787;53.316;8.670;2023-05-14T04:00:38;14.10;;;10.35;;
46815;SDS011;32787;53.316;8.670;2023-05-14T04:03:05;12.85;;;9.02;;
46815;SDS011;32787;53.316;8.670;2023-05-14T04:05:31;15.60;;;9.82;;
46815;SDS011;32787;53.316;8.670;2023-05-14T04:07:56;13.02;;;9.38;;
46815;SDS011;32787;53.316;8.670;2023-05-14T04:10:22;13.60;;;9.65;;
46815;SDS011;32787;53.316;8.670;2023-05-14T04:12:48;14.95;;;9.30;;
46815;SDS011;32787;53.316;8.670;2023-05-14T04:15:13;11.57;;;9.05;;
46815;SDS011;32787;53.316;8.670;2023-05-14T04:17:39;13.55;;;9.35;;
46815;SDS011;32787;53.316;8.670;2023-05-14T04:20:05;14.90;;;9.40;;
46815;SDS011;32787;53.316;8.670;2023-05-14T04:22:31;11.80;;;8.30;;
46815;SDS011;32787;53.316;8.670;2023-05-14T04:24:57;12.43;;;9.15;;
46815;SDS011;32787;53.316;8.670;2023-05-14T04:27:22;13.68;;;9.35;;
46815;SDS011;32787;53.316;8.670;2023-05-14T04:29:49;12.85;;;8.82;;
46815;SDS011;32787;53.316;8.670;2023-05-14T04:32:14;12.18;;;8.90;;
46815;SDS011;32787;53.316;8.670;2023-05-14T04:34:41;12.38;;;9.07;;
46815;SDS011;32787;53.316;8.670;2023-05-14T04:37:07;10.73;;;9.07;;
46815;SDS011;32787;53.316;8.670;2023-05-14T04:39:33;13.52;;;9.45;;
46815;SDS011;32787;53.316;8.670;2023-05-14T04:41:58;14.07;;;8.70;;
46815;SDS011;32787;53.316;8.670;2023-05-14T04:44:24;14.35;;;9.02;;
46815;SDS011;32787;53.316;8.670;2023-05-14T04:46:50;13.15;;;9.02;;
46815;SDS011;32787;53.316;8.670;2023-05-14T04:49:15;15.68;;;10.15;;
46815;SDS011;32787;53.316;8.670;2023-05-14T04:51:41;14.32;;;8.30;;
46815;SDS011;32787;53.316;8.670;2023-05-14T04:54:07;10.90;;;7.85;;
46815;SDS011;32787;53.316;8.670;2023-05-14T04:56:32;13.18;;;8.27;;
46815;SDS011;32787;53.316;8.670;2023-05-14T04:58:58;12.57;;;7.90;;
46815;SDS011;32787;53.316;8.670;2023-05-14T05:01:23;11.98;;;7.93;;
46815;SDS011;32787;53.316;8.670;2023-05-14T05:03:49;12.75;;;7.85;;
46815;SDS011;32787;53.316;8.670;2023-05-14T05:06:15;11.57;;;7.78;;
46815;SDS011;32787;53.316;8.670;2023-05-14T05:08:40;11.75;;;7.40;;
46815;SDS011;32787;53.316;8.670;2023-05-14T05:11:06;10.80;;;7.80;;
46815;SDS011;32787;53.316;8.670;2023-05-14T05:13:31;11.73;;;7.38;;
46815;SDS011;32787;53.316;8.670;2023-05-14T05:15:57;11.90;;;8.05;;
46815;SDS011;32787;53.316;8.670;2023-05-14T05:18:23;10.40;;;7.40;;
46815;SDS011;32787;53.316;8.670;2023-05-14T05:20:48;12.15;;;7.93;;
46815;SDS011;32787;53.316;8.670;2023-05-14T05:23:14;11.63;;;7.45;;
46815;SDS011;32787;53.316;8.670;2023-05-14T05:25:40;11.88;;;7.28;;
46815;SDS011;32787;53.316;8.670;2023-05-14T05:28:05;9.65;;;7.20;;
46815;SDS011;32787;53.316;8.670;2023-05-14T05:30:31;10.95;;;7.20;;
46815;SDS011;32787;53.316;8.670;2023-05-14T05:32:57;11.10;;;7.43;;
46815;SDS011;32787;53.316;8.670;2023-05-14T05:35:22;12.07;;;7.32;;
46815;SDS011;32787;53.316;8.670;2023-05-14T05:37:48;10.27;;;7.30;;
46815;SDS011;32787;53.316;8.670;2023-05-14T05:40:14;10.10;;;6.85;;
46815;SDS011;32787;53.316;8.670;2023-05-14T05:42:40;10.90;;;7.15;;
46815;SDS011;32787;53.316;8.670;2023-05-14T05:45:06;10.88;;;7.00;;
46815;SDS011;32787;53.316;8.670;2023-05-14T05:47:32;8.50;;;6.68;;
46815;SDS011;32787;53.316;8.670;2023-05-14T05:49:57;9.80;;;6.60;;
46815;SDS011;32787;53.316;8.670;2023-05-14T05:52:23;11.18;;;6.57;;
46815;SDS011;32787;53.316;8.670;2023-05-14T05:54:48;10.63;;;6.65;;
46815;SDS011;32787;53.316;8.670;2023-05-14T05:57:14;9.27;;;6.85;;
46815;SDS011;32787;53.316;8.670;2023-05-14T05:59:40;10.95;;;7.57;;
46815;SDS011;32787;53.316;8.670;2023-05-14T06:02:05;14.10;;;6.82;;
46815;SDS011;32787;53.316;8.670;2023-05-14T06:04:31;9.98;;;6.72;;
46815;SDS011;32787;53.316;8.670;2023-05-14T06:06:56;9.55;;;6.93;;
46815;SDS011;32787;53.316;8.670;2023-05-14T06:09:22;9.18;;;7.18;;
46815;SDS011;32787;53.316;8.670;2023-05-14T06:11:47;10.50;;;7.13;;
46815;SDS011;32787;53.316;8.670;2023-05-14T06:14:13;9.65;;;6.53;;
46815;SDS011;32787;53.316;8.670;2023-05-14T06:16:39;10.98;;;7.15;;
46815;SDS011;32787;53.316;8.670;2023-05-14T06:19:04;9.25;;;6.50;;
46815;SDS011;32787;53.316;8.670;2023-05-14T06:21:30;9.60;;;6.75;;
46815;SDS011;32787;53.316;8.670;2023-05-14T06:23:56;11.65;;;6.40;;
46815;SDS011;32787;53.316;8.670;2023-05-14T06:26:21;10.30;;;6.20;;
46815;SDS011;32787;53.316;8.670;2023-05-14T06:28:47;9.80;;;6.32;;
46815;SDS011;32787;53.316;8.670;2023-05-14T06:31:13;8.63;;;5.93;;
46815;SDS011;32787;53.316;8.670;2023-05-14T06:33:38;9.25;;;6.05;;
46815;SDS011;32787;53.316;8.670;2023-05-14T06:36:05;9.77;;;6.35;;
46815;SDS011;32787;53.316;8.670;2023-05-14T06:38:31;9.85;;;6.63;;
46815;SDS011;32787;53.316;8.670;2023-05-14T06:40:57;8.40;;;6.20;;
46815;SDS011;32787;53.316;8.670;2023-05-14T06:43:23;10.35;;;5.90;;
46815;SDS011;32787;53.316;8.670;2023-05-14T06:45:51;9.63;;;5.95;;
46815;SDS011;32787;53.316;8.670;2023-05-14T06:48:17;9.45;;;6.28;;
46815;SDS011;32787;53.316;8.670;2023-05-14T06:50:44;9.68;;;6.45;;
46815;SDS011;32787;53.316;8.670;2023-05-14T06:53:10;11.48;;;6.90;;
46815;SDS011;32787;53.316;8.670;2023-05-14T06:55:36;9.82;;;6.78;;
46815;SDS011;32787;53.316;8.670;2023-05-14T06:58:02;9.02;;;6.13;;
46815;SDS011;32787;53.316;8.670;2023-05-14T07:00:28;10.25;;;6.25;;
46815;SDS011;32787;53.316;8.670;2023-05-14T07:02:54;8.88;;;6.15;;
46815;SDS011;32787;53.316;8.670;2023-05-14T07:05:20;9.98;;;6.05;;
46815;SDS011;32787;53.316;8.670;2023-05-14T07:07:45;9.70;;;6.05;;
46815;SDS011;32787;53.316;8.670;2023-05-14T07:10:11;8.40;;;6.35;;
46815;SDS011;32787;53.316;8.670;2023-05-14T07:12:36;9.20;;;6.05;;
46815;SDS011;32787;53.316;8.670;2023-05-14T07:15:02;8.40;;;5.82;;
46815;SDS011;32787;53.316;8.670;2023-05-14T07:17:28;8.65;;;5.88;;
46815;SDS011;32787;53.316;8.670;2023-05-14T07:19:54;9.63;;;5.65;;
46815;SDS011;32787;53.316;8.670;2023-05-14T07:22:20;9.40;;;5.97;;
46815;SDS011;32787;53.316;8.670;2023-05-14T07:24:46;9.82;;;5.65;;
46815;SDS011;32787;53.316;8.670;2023-05-14T07:27:11;9.00;;;5.90;;
46815;SDS011;32787;53.316;8.670;2023-05-14T07:29:37;7.85;;;5.60;;
46815;SDS011;32787;53.316;8.670;2023-05-14T07:32:03;8.10;;;5.85;;
46815;SDS011;32787;53.316;8.670;2023-05-14T07:34:28;8.00;;;5.38;;
46815;SDS011;32787;53.316;8.670;2023-05-14T07:36:54;8.68;;;5.38;;
46815;SDS011;32787;53.316;8.670;2023-05-14T07:39:20;7.68;;;4.97;;
46815;SDS011;32787;53.316;8.670;2023-05-14T07:41:45;9.18;;;4.82;;
46815;SDS011;32787;53.316;8.670;2023-05-14T07:44:11;7.93;;;5.20;;
46815;SDS011;32787;53.316;8.670;2023-05-14T07:46:37;7.82;;;4.88;;
46815;SDS011;32787;53.316;8.670;2023-05-14T07:49:02;8.15;;;5.10;;
46815;SDS011;32787;53.316;8.670;2023-05-14T07:51:28;6.28;;;4.50;;
46815;SDS011;32787;53.316;8.670;2023-05-14T07:53:54;8.02;;;4.78;;
46815;SDS011;32787;53.316;8.670;2023-05-14T07:56:20;7.85;;;4.57;;
46815;SDS011;32787;53.316;8.670;2023-05-14T07:58:46;6.43;;;4.38;;
46815;SDS011;32787;53.316;8.670;2023-05-14T08:01:12;6.72;;;4.07;;
46815;SDS011;32787;53.316;8.670;2023-05-14T08:03:38;7.30;;;4.30;;
46815;SDS011;32787;53.316;8.670;2023-05-14T08:06:04;7.32;;;4.40;;
46815;SDS011;32787;53.316;8.670;2023-05-14T08:08:29;6.03;;;3.80;;
46815;SDS011;32787;53.316;8.670;2023-05-14T08:10:55;8.60;;;4.60;;
46815;SDS011;32787;53.316;8.670;2023-05-14T08:13:21;7.43;;;3.92;;
46815;SDS011;32787;53.316;8.670;2023-05-14T08:15:46;6.03;;;4.00;;
46815;SDS011;32787;53.316;8.670;2023-05-14T08:18:12;7.07;;;4.10;;
46815;SDS011;32787;53.316;8.670;2023-05-14T08:20:38;7.60;;;4.35;;
46815;SDS011;32787;53.316;8.670;2023-05-14T08:23:03;7.57;;;3.97;;
46815;SDS011;32787;53.316;8.670;2023-05-14T08:25:31;6.78;;;3.90;;
46815;SDS011;32787;53.316;8.670;2023-05-14T08:27:57;6.85;;;3.88;;
46815;SDS011;32787;53.316;8.670;2023-05-14T08:30:23;6.47;;;3.70;;
46815;SDS011;32787;53.316;8.670;2023-05-14T08:32:49;8.85;;;3.90;;
46815;SDS011;32787;53.316;8.670;2023-05-14T08:35:18;5.78;;;3.70;;
46815;SDS011;32787;53.316;8.670;2023-05-14T08:37:44;6.75;;;3.75;;
46815;SDS011;32787;53.316;8.670;2023-05-14T08:40:10;7.93;;;3.70;;
46815;SDS011;32787;53.316;8.670;2023-05-14T08:42:39;5.28;;;3.35;;
46815;SDS011;32787;53.316;8.670;2023-05-14T08:45:05;6.25;;;3.53;;
46815;SDS011;32787;53.316;8.670;2023-05-14T08:47:43;6.10;;;3.90;;
46815;SDS011;32787;53.316;8.670;2023-05-14T08:50:13;5.90;;;3.60;;
46815;SDS011;32787;53.316;8.670;2023-05-14T08:52:39;7.07;;;3.50;;
46815;SDS011;32787;53.316;8.670;2023-05-14T08:55:05;6.13;;;3.67;;
46815;SDS011;32787;53.316;8.670;2023-05-14T08:57:32;6.05;;;3.30;;
46815;SDS011;32787;53.316;8.670;2023-05-14T08:59:58;7.38;;;3.75;;
46815;SDS011;32787;53.316;8.670;2023-05-14T09:02:26;6.72;;;3.85;;
46815;SDS011;32787;53.316;8.670;2023-05-14T09:04:56;6.75;;;3.53;;
46815;SDS011;32787;53.316;8.670;2023-05-14T09:07:23;6.22;;;3.55;;
46815;SDS011;32787;53.316;8.670;2023-05-14T09:09:50;6.40;;;3.58;;
46815;SDS011;32787;53.316;8.670;2023-05-14T09:12:16;6.53;;;3.60;;
46815;SDS011;32787;53.316;8.670;2023-05-14T09:14:42;7.63;;;3.75;;
46815;SDS011;32787;53.316;8.670;2023-05-14T09:17:08;6.57;;;3.53;;
46815;SDS011;32787;53.316;8.670;2023-05-14T09:19:36;6.18;;;3.67;;
46815;SDS011;32787;53.316;8.670;2023-05-14T09:22:07;6.87;;;3.77;;
46815;SDS011;32787;53.316;8.670;2023-05-14T09:24:37;6.28;;;3.70;;
46815;SDS011;32787;53.316;8.670;2023-05-14T09:27:03;6.03;;;3.72;;
46815;SDS011;32787;53.316;8.670;2023-05-14T09:29:29;6.07;;;3.47;;
46815;SDS011;32787;53.316;8.670;2023-05-14T09:31:56;6.35;;;3.53;;
46815;SDS011;32787;53.316;8.670;2023-05-14T09:34:23;8.00;;;3.40;;
46815;SDS011;32787;53.316;8.670;2023-05-14T09:36:53;7.10;;;3.47;;
46815;SDS011;32787;53.316;8.670;2023-05-14T09:39:22;6.22;;;3.75;;
46815;SDS011;32787;53.316;8.670;2023-05-14T09:41:50;8.10;;;3.80;;
46815;SDS011;32787;53.316;8.670;2023-05-14T09:44:16;6.25;;;3.50;;
46815;SDS011;32787;53.316;8.670;2023-05-14T09:46:42;6.50;;;3.47;;
46815;SDS011;32787;53.316;8.670;2023-05-14T09:49:12;7.55;;;3.80;;
46815;SDS011;32787;53.316;8.670;2023-05-14T09:51:38;7.32;;;4.00;;
46815;SDS011;32787;53.316;8.670;2023-05-14T09:54:04;8.07;;;3.38;;
46815;SDS011;32787;53.316;8.670;2023-05-14T09:56:33;5.72;;;3.35;;
46815;SDS011;32787;53.316;8.670;2023-05-14T09:59:00;7.90;;;3.75;;
46815;SDS011;32787;53.316;8.670;2023-05-14T10:01:27;8.15;;;3.70;;
46815;SDS011;32787;53.316;8.670;2023-05-14T10:03:54;5.82;;;3.35;;
46815;SDS011;32787;53.316;8.670;2023-05-14T10:06:21;7.00;;;3.42;;
46815;SDS011;32787;53.316;8.670;2023-05-14T10:08:51;6.07;;;3.30;;
46815;SDS011;32787;53.316;8.670;2023-05-14T10:11:23;7.40;;;3.40;;
46815;SDS011;32787;53.316;8.670;2023-05-14T10:13:59;5.90;;;3.17;;
46815;SDS011;32787;53.316;8.670;2023-05-14T10:16:42;6.95;;;3.40;;
46815;SDS011;32787;53.316;8.670;2023-05-14T10:19:14;7.88;;;3.35;;
46815;SDS011;32787;53.316;8.670;2023-05-14T10:21:43;6.93;;;3.45;;
46815;SDS011;32787;53.316;8.670;2023-05-14T10:24:11;7.43;;;3.90;;
46815;SDS011;32787;53.316;8.670;2023-05-14T10:26:38;7.35;;;2.88;;
46815;SDS011;32787;53.316;8.670;2023-05-14T10:29:06;6.07;;;3.50;;
46815;SDS011;32787;53.316;8.670;2023-05-14T10:37:01;7.65;;;3.30;;
46815;SDS011;32787;53.316;8.670;2023-05-14T10:42:20;5.95;;;3.60;;
46815;SDS011;32787;53.316;8.670;2023-05-14T10:45:07;5.75;;;3.10;;
46815;SDS011;32787;53.316;8.670;2023-05-14T10:47:38;6.07;;;3.42;;
46815;SDS011;32787;53.316;8.670;2023-05-14T10:50:07;5.80;;;3.20;;
46815;SDS011;32787;53.316;8.670;2023-05-14T10:52:35;6.85;;;3.63;;
46815;SDS011;32787;53.316;8.670;2023-05-14T10:55:04;6.28;;;3.28;;
46815;SDS011;32787;53.316;8.670;2023-05-14T10:57:32;8.32;;;3.35;;
46815;SDS011;32787;53.316;8.670;2023-05-14T10:59:59;5.55;;;3.60;;
46815;SDS011;32787;53.316;8.670;2023-05-14T11:02:38;5.18;;;3.00;;
46815;SDS011;32787;53.316;8.670;2023-05-14T11:07:34;6.85;;;3.22;;
46815;SDS011;32787;53.316;8.670;2023-05-14T11:10:03;5.47;;;3.13;;
46815;SDS011;32787;53.316;8.670;2023-05-14T11:12:30;6.72;;;3.40;;
46815;SDS011;32787;53.316;8.670;2023-05-14T11:14:57;5.57;;;3.45;;
46815;SDS011;32787;53.316;8.670;2023-05-14T11:17:26;6.55;;;3.22;;
46815;SDS011;32787;53.316;8.670;2023-05-14T11:19:53;5.20;;;3.20;;
46815;SDS011;32787;53.316;8.670;2023-05-14T11:22:19;6.78;;;3.55;;
46815;SDS011;32787;53.316;8.670;2023-05-14T11:24:45;5.88;;;3.60;;
46815;SDS011;32787;53.316;8.670;2023-05-14T11:27:11;5.82;;;3.33;;
46815;SDS011;32787;53.316;8.670;2023-05-14T11:29:37;5.28;;;3.05;;
46815;SDS011;32787;53.316;8.670;2023-05-14T11:32:05;5.03;;;2.90;;
46815;SDS011;32787;53.316;8.670;2023-05-14T11:34:31;7.30;;;3.22;;
46815;SDS011;32787;53.316;8.670;2023-05-14T11:37:01;7.50;;;4.05;;
46815;SDS011;32787;53.316;8.670;2023-05-14T11:39:28;5.50;;;3.05;;
46815;SDS011;32787;53.316;8.670;2023-05-14T11:41:56;6.80;;;3.30;;
46815;SDS011;32787;53.316;8.670;2023-05-14T11:44:22;5.60;;;3.15;;
46815;SDS011;32787;53.316;8.670;2023-05-14T11:46:58;5.70;;;3.05;;
46815;SDS011;32787;53.316;8.670;2023-05-14T11:49:26;4.90;;;2.90;;
46815;SDS011;32787;53.316;8.670;2023-05-14T11:51:56;5.85;;;3.30;;
46815;SDS011;32787;53.316;8.670;2023-05-14T11:54:29;6.15;;;3.10;;
46815;SDS011;32787;53.316;8.670;2023-05-14T11:56:59;5.30;;;3.05;;
46815;SDS011;32787;53.316;8.670;2023-05-14T11:59:26;6.57;;;3.45;;
46815;SDS011;32787;53.316;8.670;2023-05-14T12:01:53;5.55;;;3.25;;
46815;SDS011;32787;53.316;8.670;2023-05-14T12:04:19;4.85;;;3.00;;
46815;SDS011;32787;53.316;8.670;2023-05-14T12:06:56;9.25;;;3.70;;
46815;SDS011;32787;53.316;8.670;2023-05-14T12:09:24;6.15;;;3.28;;
46815;SDS011;32787;53.316;8.670;2023-05-14T12:11:50;6.05;;;2.88;;
46815;SDS011;32787;53.316;8.670;2023-05-14T12:14:20;6.32;;;2.90;;
46815;SDS011;32787;53.316;8.670;2023-05-14T12:16:47;6.78;;;3.30;;
46815;SDS011;32787;53.316;8.670;2023-05-14T12:19:14;8.88;;;3.22;;
46815;SDS011;32787;53.316;8.670;2023-05-14T12:21:44;5.45;;;2.92;;
46815;SDS011;32787;53.316;8.670;2023-05-14T12:24:14;5.13;;;2.90;;
46815;SDS011;32787;53.316;8.670;2023-05-14T12:26:47;5.75;;;3.13;;
46815;SDS011;32787;53.316;8.670;2023-05-14T12:29:15;5.00;;;2.85;;
46815;SDS011;32787;53.316;8.670;2023-05-14T12:31:44;6.45;;;3.05;;
46815;SDS011;32787;53.316;8.670;2023-05-14T12:34:11;6.00;;;3.30;;
46815;SDS011;32787;53.316;8.670;2023-05-14T12:36:37;6.70;;;3.03;;
46815;SDS011;32787;53.316;8.670;2023-05-14T12:39:03;5.90;;;3.28;;
46815;SDS011;32787;53.316;8.670;2023-05-14T12:41:30;6.25;;;3.05;;
46815;SDS011;32787;53.316;8.670;2023-05-14T12:43:56;7.05;;;2.92;;
46815;SDS011;32787;53.316;8.670;2023-05-14T12:46:21;5.80;;;2.90;;
46815;SDS011;32787;53.316;8.670;2023-05-14T12:48:47;8.27;;;2.95;;
46815;SDS011;32787;53.316;8.670;2023-05-14T12:51:13;8.40;;;3.38;;
46815;SDS011;32787;53.316;8.670;2023-05-14T12:53:39;5.63;;;3.00;;
46815;SDS011;32787;53.316;8.670;2023-05-14T12:56:05;5.78;;;2.78;;
46815;SDS011;32787;53.316;8.670;2023-05-14T12:58:31;5.40;;;3.00;;
46815;SDS011;32787;53.316;8.670;2023-05-14T13:00:56;6.55;;;3.08;;
46815;SDS011;32787;53.316;8.670;2023-05-14T13:03:22;7.53;;;2.95;;
46815;SDS011;32787;53.316;8.670;2023-05-14T13:05:48;5.43;;;2.95;;
46815;SDS011;32787;53.316;8.670;2023-05-14T13:08:14;5.15;;;2.60;;
46815;SDS011;32787;53.316;8.670;2023-05-14T13:10:42;4.90;;;2.70;;
46815;SDS011;32787;53.316;8.670;2023-05-14T13:13:10;5.37;;;2.53;;
46815;SDS011;32787;53.316;8.670;2023-05-14T13:15:36;5.35;;;3.10;;
46815;SDS011;32787;53.316;8.670;2023-05-14T13:18:02;5.03;;;2.78;;
46815;SDS011;32787;53.316;8.670;2023-05-14T13:20:28;6.88;;;2.50;;
46815;SDS011;32787;53.316;8.670;2023-05-14T13:22:55;5.30;;;2.80;;
46815;SDS011;32787;53.316;8.670;2023-05-14T13:25:21;5.05;;;2.78;;
46815;SDS011;32787;53.316;8.670;2023-05-14T13:27:47;5.13;;;2.72;;
46815;SDS011;32787;53.316;8.670;2023-05-14T13:30:18;4.47;;;2.58;;
46815;SDS011;32787;53.316;8.670;2023-05-14T13:35:10;6.68;;;2.80;;
46815;SDS011;32787;53.316;8.670;2023-05-14T13:37:36;6.15;;;2.83;;
46815;SDS011;32787;53.316;8.670;2023-05-14T13:40:02;4.45;;;2.60;;
46815;SDS011;32787;53.316;8.670;2023-05-14T13:42:31;7.38;;;2.70;;
46815;SDS011;32787;53.316;8.670;2023-05-14T13:44:57;5.85;;;2.83;;
46815;SDS011;32787;53.316;8.670;2023-05-14T13:47:23;7.07;;;2.75;;
46815;SDS011;32787;53.316;8.670;2023-05-14T13:49:50;4.57;;;2.63;;
46815;SDS011;32787;53.316;8.670;2023-05-14T13:52:16;5.47;;;3.45;;
46815;SDS011;32787;53.316;8.670;2023-05-14T13:54:42;7.00;;;2.58;;
46815;SDS011;32787;53.316;8.670;2023-05-14T13:57:07;5.40;;;2.75;;
46815;SDS011;32787;53.316;8.670;2023-05-14T13:59:33;5.78;;;2.80;;
46815;SDS011;32787;53.316;8.670;2023-05-14T14:01:59;5.07;;;2.92;;
46815;SDS011;32787;53.316;8.670;2023-05-14T14:04:25;6.13;;;2.80;;
46815;SDS011;32787;53.316;8.670;2023-05-14T14:06:53;5.53;;;3.03;;
46815;SDS011;32787;53.316;8.670;2023-05-14T14:09:19;6.75;;;3.00;;
46815;SDS011;32787;53.316;8.670;2023-05-14T14:11:45;5.68;;;3.10;;
46815;SDS011;32787;53.316;8.670;2023-05-14T14:14:11;4.43;;;2.45;;
46815;SDS011;32787;53.316;8.670;2023-05-14T14:16:36;6.95;;;2.60;;
46815;SDS011;32787;53.316;8.670;2023-05-14T14:19:02;6.18;;;2.67;;
46815;SDS011;32787;53.316;8.670;2023-05-14T14:21:27;4.93;;;2.55;;
46815;SDS011;32787;53.316;8.670;2023-05-14T14:23:53;6.15;;;3.10;;
46815;SDS011;32787;53.316;8.670;2023-05-14T14:26:19;5.50;;;3.33;;
46815;SDS011;32787;53.316;8.670;2023-05-14T14:28:45;8.10;;;2.90;;
46815;SDS011;32787;53.316;8.670;2023-05-14T14:31:11;6.20;;;2.67;;
46815;SDS011;32787;53.316;8.670;2023-05-14T14:33:37;5.88;;;3.17;;
46815;SDS011;32787;53.316;8.670;2023-05-14T14:36:03;8.35;;;4.03;;
46815;SDS011;32787;53.316;8.670;2023-05-14T14:38:29;5.05;;;3.60;;
46815;SDS011;32787;53.316;8.670;2023-05-14T14:40:55;6.75;;;3.42;;
46815;SDS011;32787;53.316;8.670;2023-05-14T14:43:22;6.03;;;3.42;;
46815;SDS011;32787;53.316;8.670;2023-05-14T14:45:48;6.07;;;3.30;;
46815;SDS011;32787;53.316;8.670;2023-05-14T14:50:55;6.47;;;3.78;;
46815;SDS011;32787;53.316;8.670;2023-05-14T14:53:21;8.57;;;3.92;;
46815;SDS011;32787;53.316;8.670;2023-05-14T14:55:47;6.75;;;3.35;;
46815;SDS011;32787;53.316;8.670;2023-05-14T14:58:13;7.93;;;3.53;;
46815;SDS011;32787;53.316;8.670;2023-05-14T15:00:39;5.85;;;3.88;;
46815;SDS011;32787;53.316;8.670;2023-05-14T15:03:05;6.80;;;3.70;;
46815;SDS011;32787;53.316;8.670;2023-05-14T15:05:33;6.57;;;3.28;;